createdAt,value
2023-03-17T00:02:16.109Z,54.23
2023-03-17T00:04:46.480Z,53.98
2023-03-17T00:07:21.088Z,54.18
2023-03-17T00:09:55.534Z,54.22
2023-03-17T00:12:32.624Z,54.03
2023-03-17T00:15:03.342Z,54.23
2023-03-17T00:18:05.222Z,54.47
2023-03-17T00:20:41.182Z,54.18
2023-03-17T00:23:16.120Z,54.57
2023-03-17T00:25:47.660Z,54.44
2023-03-17T00:28:28.445Z,54.45
2023-03-17T00:31:16.188Z,54.32
2023-03-17T00:33:54.780Z,54.56
2023-03-17T00:36:52.257Z,54.70
2023-03-17T00:40:04.133Z,54.58
2023-03-17T00:42:43.773Z,54.53
2023-03-17T00:45:15.880Z,54.68
2023-03-17T00:48:05.065Z,54.88
2023-03-17T00:50:35.129Z,54.81
2023-03-17T00:53:17.793Z,54.80
2023-03-17T00:55:47.593Z,54.73
2023-03-17T00:58:48.448Z,54.87
2023-03-17T01:01:25.681Z,54.83
2023-03-17T01:04:16.326Z,55.12
2023-03-17T01:07:11.121Z,55.06
2023-03-17T01:09:41.192Z,55.13
2023-03-17T01:12:21.032Z,55.03
2023-03-17T01:14:52.788Z,55.11
2023-03-17T01:17:33.504Z,55.01
2023-03-17T01:20:21.438Z,55.25
2023-03-17T01:22:49.417Z,55.32
2023-03-17T01:25:20.793Z,55.13
2023-03-17T01:27:56.525Z,55.32
2023-03-17T01:30:31.946Z,55.20
2023-03-17T01:33:05.703Z,55.18
2023-03-17T01:35:38.083Z,55.34
2023-03-17T01:38:12.204Z,55.73
2023-03-17T01:41:09.632Z,55.63
2023-03-17T01:43:43.683Z,55.86
2023-03-17T01:46:30.597Z,55.63
2023-03-17T01:49:30.031Z,55.49
2023-03-17T01:52:11.428Z,55.51
2023-03-17T01:55:16.228Z,55.49
2023-03-17T01:57:57.546Z,55.72
2023-03-17T02:03:55.201Z,55.84
2023-03-17T02:06:32.512Z,55.46
2023-03-17T02:09:21.635Z,55.65
2023-03-17T02:11:51.534Z,55.84
2023-03-17T02:14:31.879Z,55.76
2023-03-17T02:17:07.332Z,55.97
2023-03-17T02:19:47.444Z,56.00
2023-03-17T02:22:40.655Z,55.99
2023-03-17T02:25:08.187Z,56.12
2023-03-17T02:27:44.864Z,55.93
2023-03-17T02:30:21.200Z,55.84
2023-03-17T02:32:50.695Z,55.99
2023-03-17T02:35:19.616Z,56.09
2023-03-17T02:37:54.276Z,55.83
2023-03-17T02:40:24.144Z,56.37
2023-03-17T02:42:56.359Z,56.23
2023-03-17T02:45:42.752Z,56.26
2023-03-17T02:48:12.886Z,56.38
2023-03-17T02:51:04.515Z,56.32
2023-03-17T02:53:43.180Z,56.41
2023-03-17T02:56:57.453Z,56.67
2023-03-17T02:59:24.890Z,56.62
2023-03-17T03:01:54.424Z,56.65
2023-03-17T03:04:44.769Z,56.53
2023-03-17T03:07:17.757Z,56.82
2023-03-17T03:09:49.343Z,56.69
2023-03-17T03:12:21.170Z,56.73
2023-03-17T03:15:02.039Z,56.51
2023-03-17T03:17:36.348Z,56.64
2023-03-17T03:20:27.006Z,56.73
2023-03-17T03:22:54.033Z,56.94
2023-03-17T03:25:42.252Z,56.92
2023-03-17T03:28:10.728Z,56.82
2023-03-17T03:31:04.732Z,56.80
2023-03-17T03:33:33.294Z,57.18
2023-03-17T03:36:07.839Z,57.11
2023-03-17T03:39:04.013Z,57.15
2023-03-17T03:41:45.486Z,57.25
2023-03-17T03:44:12.748Z,57.06
2023-03-17T03:46:42.943Z,56.98
2023-03-17T03:49:18.720Z,56.99
2023-03-17T03:52:02.108Z,56.92
2023-03-17T03:54:33.062Z,57.12
2023-03-17T03:57:33.028Z,57.18
2023-03-17T04:00:02.978Z,57.18
2023-03-17T04:02:35.463Z,57.16
2023-03-17T04:05:05.252Z,57.03
2023-03-17T04:07:36.902Z,57.25
2023-03-17T04:10:15.765Z,57.23
2023-03-17T04:12:50.344Z,56.96
2023-03-17T04:15:20.112Z,57.20
2023-03-17T04:17:47.313Z,57.28
2023-03-17T04:20:21.821Z,57.18
2023-03-17T04:23:05.674Z,57.46
2023-03-17T04:25:44.688Z,57.44
2023-03-17T04:28:16.198Z,57.55
2023-03-17T04:30:48.730Z,57.51
2023-03-17T04:33:21.608Z,57.57
2023-03-17T04:36:01.965Z,57.87
2023-03-17T04:38:37.724Z,57.68
2023-03-17T04:41:16.234Z,57.79
2023-03-17T04:47:03.027Z,58.00
2023-03-17T04:50:05.395Z,58.01
2023-03-17T04:52:37.997Z,57.91
2023-03-17T04:55:37.756Z,58.18
2023-03-17T04:58:39.409Z,58.17
2023-03-17T05:01:12.086Z,58.25
2023-03-17T05:04:11.160Z,58.27
2023-03-17T05:06:45.063Z,57.98
2023-03-17T05:09:16.778Z,58.27
2023-03-17T05:11:53.637Z,58.16
2023-03-17T05:14:30.217Z,58.12
2023-03-17T05:17:06.033Z,58.29
2023-03-17T05:19:54.587Z,58.42
2023-03-17T05:22:33.138Z,58.50
2023-03-17T05:25:11.674Z,58.58
2023-03-17T05:27:51.253Z,58.43
2023-03-17T05:30:22.905Z,58.36
2023-03-17T05:32:51.138Z,58.72
2023-03-17T05:35:22.829Z,58.61
2023-03-17T05:38:28.357Z,58.87
2023-03-17T05:41:37.779Z,58.67
2023-03-17T05:44:19.482Z,58.86
2023-03-17T05:47:15.414Z,58.95
2023-03-17T05:49:53.841Z,59.11
2023-03-17T05:52:43.514Z,59.07
2023-03-17T05:55:23.286Z,59.07
2023-03-17T05:57:49.773Z,58.93
2023-03-17T06:00:18.170Z,59.10
2023-03-17T06:02:45.201Z,59.17
2023-03-17T06:05:12.666Z,59.06
2023-03-17T06:07:51.659Z,59.47
2023-03-17T06:10:20.011Z,59.24
2023-03-17T06:12:46.759Z,59.53
2023-03-17T06:15:13.157Z,59.46
2023-03-17T06:17:39.643Z,59.47
2023-03-17T06:20:06.566Z,59.52
2023-03-17T06:22:33.050Z,59.51
2023-03-17T06:25:00.368Z,59.51
2023-03-17T06:27:26.788Z,59.59
2023-03-17T06:29:53.201Z,59.33
2023-03-17T06:32:21.144Z,59.76
2023-03-17T06:34:47.823Z,59.67
2023-03-17T06:37:14.879Z,59.58
2023-03-17T06:39:41.705Z,59.68
2023-03-17T06:42:09.348Z,59.69
2023-03-17T06:44:36.519Z,59.69
2023-03-17T06:47:03.067Z,59.72
2023-03-17T06:49:29.592Z,59.86
2023-03-17T06:51:56.022Z,59.81
2023-03-17T06:54:24.750Z,59.91
2023-03-17T06:56:52.336Z,59.86
2023-03-17T06:59:19.853Z,59.80
2023-03-17T07:01:49.983Z,59.73
2023-03-17T07:04:16.526Z,60.00
2023-03-17T07:06:43.256Z,59.87
2023-03-17T07:09:10.208Z,59.88
2023-03-17T07:11:36.785Z,59.77
2023-03-17T07:14:03.452Z,59.77
2023-03-17T07:16:30.280Z,60.04
2023-03-17T07:18:56.813Z,60.00
2023-03-17T07:21:23.216Z,60.20
2023-03-17T07:23:52.990Z,59.98
2023-03-17T07:26:19.412Z,60.03
2023-03-17T07:28:46.104Z,60.01
2023-03-17T07:31:13.816Z,60.10
2023-03-17T07:33:41.316Z,59.98
2023-03-17T07:36:09.754Z,60.03
2023-03-17T07:38:36.820Z,60.35
2023-03-17T07:41:04.213Z,59.80
2023-03-17T07:43:31.279Z,60.20
2023-03-17T07:45:58.326Z,59.90
2023-03-17T07:48:25.445Z,60.03
2023-03-17T07:50:51.947Z,60.22
2023-03-17T07:53:18.677Z,60.23
2023-03-17T07:55:45.199Z,60.11
2023-03-17T07:58:13.122Z,60.02
2023-03-17T08:00:43.912Z,60.03
2023-03-17T08:03:11.240Z,60.18
2023-03-17T08:05:39.043Z,60.48
2023-03-17T08:08:06.000Z,60.28
2023-03-17T08:10:32.671Z,59.91
2023-03-17T08:12:59.271Z,60.32
2023-03-17T08:15:26.170Z,60.16
2023-03-17T08:17:53.585Z,60.47
2023-03-17T08:20:21.187Z,60.47
2023-03-17T08:22:47.878Z,60.20
2023-03-17T08:25:14.602Z,60.02
2023-03-17T08:27:41.939Z,59.91
2023-03-17T08:30:09.657Z,60.41
2023-03-17T08:32:36.966Z,60.14
2023-03-17T08:35:05.666Z,60.27
2023-03-17T08:37:32.362Z,60.36
2023-03-17T08:39:59.009Z,60.21
2023-03-17T08:42:25.470Z,60.03
2023-03-17T08:44:52.453Z,60.17
2023-03-17T08:47:19.339Z,60.09
2023-03-17T08:49:45.733Z,60.34
2023-03-17T08:52:12.221Z,60.16
2023-03-17T08:54:38.900Z,60.10
2023-03-17T08:57:06.008Z,60.21
2023-03-17T08:59:33.057Z,60.21
2023-03-17T09:01:59.994Z,60.06
2023-03-17T09:04:27.338Z,60.07
2023-03-17T09:07:03.201Z,60.22
2023-03-17T09:09:31.742Z,59.97
2023-03-17T09:11:59.046Z,60.05
2023-03-17T09:14:25.465Z,60.09
2023-03-17T09:16:52.412Z,59.93
2023-03-17T09:19:18.979Z,59.90
2023-03-17T09:21:46.010Z,59.83
2023-03-17T09:24:13.102Z,59.90
2023-03-17T09:26:40.057Z,59.97
2023-03-17T09:29:07.205Z,59.77
2023-03-17T09:31:35.553Z,59.72
2023-03-17T09:34:04.547Z,59.63
2023-03-17T09:36:35.579Z,59.51
2023-03-17T09:39:02.533Z,59.56
2023-03-17T09:41:37.306Z,59.49
2023-03-17T09:44:22.349Z,59.28
2023-03-17T09:47:06.449Z,59.36
2023-03-17T09:49:48.840Z,59.26
2023-03-17T09:52:18.405Z,59.29
2023-03-17T09:54:48.899Z,59.09
2023-03-17T09:57:24.208Z,58.94
2023-03-17T10:00:00.762Z,58.95
2023-03-17T10:02:32.892Z,58.96
2023-03-17T10:05:13.505Z,58.94
2023-03-17T10:07:58.784Z,58.48
2023-03-17T10:10:41.873Z,58.97
2023-03-17T10:13:25.345Z,58.75
2023-03-17T10:16:03.515Z,58.70
2023-03-17T10:18:56.209Z,58.47
2023-03-17T10:21:28.181Z,58.29
2023-03-17T10:23:57.131Z,58.37
2023-03-17T10:26:34.762Z,58.01
2023-03-17T10:29:05.588Z,58.34
2023-03-17T10:31:34.844Z,58.23
2023-03-17T10:34:32.414Z,58.29
2023-03-17T10:37:17.401Z,58.15
2023-03-17T10:39:53.846Z,57.92
2023-03-17T10:42:28.999Z,57.94
2023-03-17T10:45:01.481Z,57.98
2023-03-17T10:47:39.926Z,57.58
2023-03-17T10:50:28.258Z,57.85
2023-03-17T10:53:05.376Z,57.58
2023-03-17T10:55:40.172Z,57.57
2023-03-17T10:58:15.369Z,57.51
2023-03-17T11:01:07.722Z,57.42
2023-03-17T11:03:39.072Z,57.09
2023-03-17T11:06:09.752Z,57.37
2023-03-17T11:08:53.051Z,57.25
2023-03-17T11:11:29.274Z,57.05
2023-03-17T11:14:03.411Z,57.00
2023-03-17T11:16:34.436Z,56.81
2023-03-17T11:19:02.878Z,56.63
2023-03-17T11:21:32.086Z,56.61
2023-03-17T11:24:03.986Z,56.77
2023-03-17T11:26:45.073Z,56.68
2023-03-17T11:29:41.652Z,56.44
2023-03-17T11:32:20.977Z,56.48
2023-03-17T11:35:12.153Z,56.61
2023-03-17T11:38:15.159Z,56.43
2023-03-17T11:40:53.683Z,56.40
2023-03-17T11:43:36.800Z,56.33
2023-03-17T11:46:15.378Z,56.29
2023-03-17T11:48:50.468Z,55.99
2023-03-17T11:51:17.259Z,55.87
2023-03-17T11:54:10.035Z,55.63
2023-03-17T11:56:49.534Z,55.84
2023-03-17T11:59:35.540Z,55.84
2023-03-17T12:02:28.030Z,55.72
2023-03-17T12:05:04.448Z,55.90
2023-03-17T12:07:36.848Z,55.75
2023-03-17T12:10:14.945Z,55.42
2023-03-17T12:12:49.803Z,55.46
2023-03-17T12:15:41.402Z,55.55
2023-03-17T12:18:13.504Z,55.22
2023-03-17T12:21:04.475Z,55.16
2023-03-17T12:23:44.682Z,55.23
2023-03-17T12:26:17.702Z,54.87
2023-03-17T12:29:03.533Z,54.90
2023-03-17T12:31:36.830Z,54.81
2023-03-17T12:34:25.377Z,54.72
2023-03-17T12:36:53.440Z,54.38
2023-03-17T12:39:26.612Z,54.79
2023-03-17T12:42:05.447Z,54.62
2023-03-17T12:44:44.628Z,54.37
2023-03-17T12:47:26.780Z,54.48
2023-03-17T12:50:17.650Z,54.16
2023-03-17T12:53:02.106Z,54.30
2023-03-17T12:55:32.846Z,54.00
2023-03-17T12:58:04.080Z,53.98
2023-03-17T13:00:33.458Z,53.97
2023-03-17T13:03:15.879Z,54.03
2023-03-17T13:05:49.481Z,53.78
2023-03-17T13:08:30.263Z,53.95
2023-03-17T13:11:28.979Z,53.48
2023-03-17T13:14:08.069Z,53.69
2023-03-17T13:16:44.158Z,53.57
2023-03-17T13:19:23.178Z,53.57
2023-03-17T13:21:59.819Z,53.53
2023-03-17T13:24:43.371Z,53.48
2023-03-17T13:27:14.062Z,53.54
2023-03-17T13:29:45.081Z,53.25
2023-03-17T13:32:24.148Z,53.22
2023-03-17T13:34:57.999Z,52.97
2023-03-17T13:37:35.068Z,52.99
2023-03-17T13:40:24.541Z,52.98
2023-03-17T13:43:05.974Z,52.54
2023-03-17T13:45:39.022Z,52.46
2023-03-17T13:48:29.474Z,52.44
2023-03-17T13:51:16.270Z,52.68
2023-03-17T13:53:53.264Z,51.92
2023-03-17T13:56:40.986Z,52.19
2023-03-17T13:59:14.343Z,52.31
2023-03-17T14:01:47.841Z,51.95
2023-03-17T14:04:44.090Z,52.10
2023-03-17T14:07:16.418Z,52.05
2023-03-17T14:09:43.705Z,52.22
2023-03-17T14:12:12.439Z,51.92
2023-03-17T14:14:52.512Z,51.94
2023-03-17T14:17:31.557Z,52.06
2023-03-17T14:20:07.729Z,51.87
2023-03-17T14:22:46.567Z,51.42
2023-03-17T14:25:19.652Z,51.80
2023-03-17T14:27:51.146Z,51.90
2023-03-17T14:30:21.282Z,51.76
2023-03-17T14:32:56.114Z,51.83
2023-03-17T14:35:22.584Z,51.82
2023-03-17T14:37:49.077Z,51.73
2023-03-17T14:40:28.229Z,51.40
2023-03-17T14:42:55.659Z,51.48
2023-03-17T14:45:48.699Z,51.63
2023-03-17T14:49:07.024Z,51.35
2023-03-17T14:52:41.518Z,51.33
2023-03-17T15:03:02.531Z,51.15
2023-03-17T15:03:25.697Z,51.22
2023-03-17T15:10:06.890Z,50.86
2023-03-17T15:12:33.799Z,50.91
2023-03-17T15:15:05.622Z,51.02
2023-03-17T15:17:36.075Z,51.05
2023-03-17T15:20:11.243Z,50.90
2023-03-17T15:22:37.620Z,50.84
2023-03-17T15:25:29.051Z,50.84
2023-03-17T15:27:56.158Z,50.66
2023-03-17T15:30:45.898Z,50.73
2023-03-17T15:33:22.615Z,50.84
2023-03-17T15:35:53.090Z,50.69
2023-03-17T15:38:26.170Z,50.79
2023-03-17T15:40:55.983Z,50.64
2023-03-17T15:43:23.069Z,50.69
2023-03-17T15:46:08.019Z,50.68
2023-03-17T15:48:36.590Z,50.48
2023-03-17T15:51:05.819Z,50.33
2023-03-17T15:53:32.455Z,50.51
2023-03-17T15:55:59.014Z,50.29
2023-03-17T15:58:34.638Z,50.50
2023-03-17T16:01:02.823Z,50.38
2023-03-17T16:03:35.104Z,50.29
2023-03-17T16:06:20.307Z,50.40
2023-03-17T16:08:48.325Z,50.44
2023-03-17T16:11:18.645Z,50.33
2023-03-17T16:13:49.786Z,50.34
2023-03-17T16:16:45.819Z,50.33
2023-03-17T16:19:19.558Z,50.21
2023-03-17T16:21:46.896Z,50.32
2023-03-17T16:24:23.181Z,50.51
2023-03-17T16:26:50.264Z,50.30
2023-03-17T16:29:18.113Z,50.32
2023-03-17T16:31:48.657Z,50.29
2023-03-17T16:34:21.543Z,50.33
2023-03-17T16:36:49.980Z,50.32
2023-03-17T16:39:18.690Z,50.35
2023-03-17T16:41:46.848Z,50.30
2023-03-17T16:44:16.251Z,50.29
2023-03-17T16:46:44.532Z,50.27
2023-03-17T16:49:17.183Z,50.31
2023-03-17T16:51:44.158Z,50.24
2023-03-17T16:54:11.023Z,50.26
2023-03-17T16:56:47.531Z,50.27
2023-03-17T16:59:27.668Z,50.41
2023-03-17T17:01:54.784Z,50.42
2023-03-17T17:04:21.470Z,50.32
2023-03-17T17:07:00.025Z,50.31
2023-03-17T17:09:33.480Z,50.29
2023-03-17T17:12:01.320Z,50.53
2023-03-17T17:14:27.885Z,50.27
2023-03-17T17:16:54.533Z,50.29
2023-03-17T17:19:23.431Z,50.46
2023-03-17T17:21:50.487Z,50.36
2023-03-17T17:24:17.483Z,50.49
2023-03-17T17:26:44.273Z,50.48
2023-03-17T17:29:11.515Z,50.21
2023-03-17T17:31:38.117Z,50.55
2023-03-17T17:34:04.698Z,50.38
2023-03-17T17:36:31.634Z,50.41
2023-03-17T17:38:59.479Z,50.34
2023-03-17T17:41:26.191Z,50.37
2023-03-17T17:43:53.221Z,50.38
2023-03-17T17:46:21.996Z,50.56
2023-03-17T17:48:50.174Z,50.67
2023-03-17T17:51:20.066Z,50.62
2023-03-17T17:53:46.609Z,50.52
2023-03-17T17:56:17.459Z,50.59
2023-03-17T17:58:43.928Z,50.79
2023-03-17T18:01:13.299Z,50.57
2023-03-17T18:03:42.127Z,50.58
2023-03-17T18:06:09.559Z,50.48
2023-03-17T18:08:36.451Z,50.71
2023-03-17T18:11:03.153Z,50.55
2023-03-17T18:13:29.545Z,50.64
2023-03-17T18:15:56.459Z,50.61
2023-03-17T18:18:23.450Z,50.87
2023-03-17T18:20:50.468Z,50.87
2023-03-17T18:23:17.089Z,50.70
2023-03-17T18:25:43.574Z,50.73
2023-03-17T18:28:10.081Z,50.90
2023-03-17T18:30:37.610Z,50.81
2023-03-17T18:33:13.316Z,50.45
2023-03-17T18:35:41.108Z,50.63
2023-03-17T18:38:08.030Z,50.64
2023-03-17T18:40:35.542Z,50.70
2023-03-17T18:43:02.172Z,50.90
2023-03-17T18:45:28.626Z,50.76
2023-03-17T18:47:55.491Z,50.86
2023-03-17T18:50:22.587Z,50.80
2023-03-17T18:52:49.659Z,50.72
2023-03-17T18:55:16.718Z,51.06
2023-03-17T18:57:45.207Z,50.90
2023-03-17T19:00:15.696Z,50.88
2023-03-17T19:02:42.808Z,50.83
2023-03-17T19:05:10.849Z,50.78
2023-03-17T19:07:40.084Z,50.83
2023-03-17T19:10:09.241Z,51.03
2023-03-17T19:12:36.635Z,50.99
2023-03-17T19:15:05.568Z,51.00
2023-03-17T19:17:32.989Z,51.01
2023-03-17T19:19:59.452Z,50.91
2023-03-17T19:22:26.403Z,51.08
2023-03-17T19:24:52.888Z,51.02
2023-03-17T19:27:20.083Z,50.99
2023-03-17T19:29:46.955Z,50.99
2023-03-17T19:32:13.409Z,50.96
2023-03-17T19:34:39.867Z,50.86
2023-03-17T19:37:06.270Z,51.00
2023-03-17T19:39:33.367Z,50.81
2023-03-17T19:42:00.379Z,51.00
2023-03-17T19:44:27.401Z,51.26
2023-03-17T19:46:54.048Z,50.90
2023-03-17T19:49:20.843Z,51.16
2023-03-17T19:51:48.348Z,51.00
2023-03-17T19:54:16.106Z,50.96
2023-03-17T19:56:43.103Z,51.09
2023-03-17T19:59:09.760Z,50.88
2023-03-17T20:01:37.416Z,51.22
2023-03-17T20:04:06.226Z,51.05
2023-03-17T20:06:33.882Z,51.14
2023-03-17T20:09:03.528Z,51.15
2023-03-17T20:11:33.228Z,51.06
2023-03-17T20:14:01.091Z,51.17
2023-03-17T20:16:29.722Z,51.22
2023-03-17T20:18:56.165Z,51.04
2023-03-17T20:21:23.284Z,51.19
2023-03-17T20:23:50.906Z,50.91
2023-03-17T20:26:19.340Z,51.47
2023-03-17T20:28:46.356Z,51.21
2023-03-17T20:31:13.198Z,51.15
2023-03-17T20:33:40.568Z,51.02
2023-03-17T20:36:08.681Z,50.93
2023-03-17T20:38:38.268Z,51.10
2023-03-17T20:41:10.748Z,51.14
2023-03-17T20:43:37.671Z,51.11
2023-03-17T20:46:08.117Z,50.97
2023-03-17T20:48:36.479Z,51.18
2023-03-17T20:51:05.635Z,51.02
2023-03-17T20:53:33.705Z,51.26
2023-03-17T20:56:00.167Z,51.18
2023-03-17T20:58:27.204Z,51.30
2023-03-17T21:00:55.624Z,51.52
2023-03-17T21:03:22.221Z,51.33
2023-03-17T21:05:48.725Z,51.18
2023-03-17T21:08:15.799Z,51.19
2023-03-17T21:10:42.665Z,51.18
2023-03-17T21:13:09.623Z,51.12
2023-03-17T21:15:36.046Z,51.36
2023-03-17T21:18:02.736Z,51.43
2023-03-17T21:20:29.640Z,51.47
2023-03-17T21:22:56.830Z,51.39
2023-03-17T21:25:24.109Z,51.38
2023-03-17T21:27:51.590Z,51.47
2023-03-17T21:30:18.199Z,51.44
2023-03-17T21:32:44.746Z,51.58
2023-03-17T21:35:13.400Z,51.44
2023-03-17T21:37:40.346Z,51.36
2023-03-17T21:40:07.947Z,51.30
2023-03-17T21:42:34.680Z,51.50
2023-03-17T21:45:01.163Z,51.62
2023-03-17T21:47:29.392Z,51.22
2023-03-17T21:49:57.360Z,51.65
2023-03-17T21:52:24.822Z,51.42
2023-03-17T21:54:51.231Z,51.48
2023-03-17T21:57:17.667Z,51.20
2023-03-17T21:59:44.936Z,51.31
2023-03-17T22:02:12.589Z,51.64
2023-03-17T22:04:40.992Z,51.56
2023-03-17T22:07:07.427Z,51.54
2023-03-17T22:09:33.954Z,51.64
2023-03-17T22:12:00.516Z,51.58
2023-03-17T22:14:27.112Z,51.40
2023-03-17T22:16:54.130Z,51.39
2023-03-17T22:19:21.967Z,51.36
2023-03-17T22:21:49.088Z,51.51
2023-03-17T22:24:16.216Z,51.57
2023-03-17T22:26:42.672Z,51.29
2023-03-17T22:29:09.177Z,51.42
2023-03-17T22:31:36.096Z,51.29
2023-03-17T22:34:03.653Z,51.66
2023-03-17T22:36:30.478Z,51.36
2023-03-17T22:38:58.052Z,51.55
2023-03-17T22:41:27.700Z,51.66
2023-03-17T22:43:54.249Z,51.49
2023-03-17T22:46:21.558Z,51.49
2023-03-17T22:48:49.720Z,51.55
2023-03-17T22:51:20.847Z,51.69
2023-03-17T22:53:47.909Z,51.68
2023-03-17T22:56:15.846Z,51.52
2023-03-17T22:58:43.113Z,51.68
2023-03-17T23:01:11.779Z,51.96
2023-03-17T23:03:39.244Z,51.78
2023-03-17T23:06:07.125Z,51.57
2023-03-17T23:08:36.807Z,51.65
2023-03-17T23:11:32.625Z,51.75
2023-03-17T23:13:59.652Z,51.79
2023-03-17T23:16:26.653Z,51.89
2023-03-17T23:18:53.112Z,51.90
2023-03-17T23:21:24.954Z,51.95
2023-03-17T23:23:51.552Z,52.03
2023-03-17T23:26:18.726Z,52.09
2023-03-17T23:28:45.812Z,52.03
2023-03-17T23:31:12.366Z,52.11
2023-03-17T23:33:39.124Z,51.98
2023-03-17T23:36:06.386Z,52.20
2023-03-17T23:38:33.530Z,52.14
2023-03-17T23:41:00.435Z,52.26
2023-03-17T23:43:27.456Z,52.30
2023-03-17T23:45:54.119Z,52.14
2023-03-17T23:48:21.557Z,52.23
2023-03-17T23:50:52.049Z,52.27
2023-03-17T23:53:19.034Z,52.51
2023-03-17T23:55:46.205Z,52.39
2023-03-17T23:58:13.705Z,52.47
